Wolcott, Colorado
Current Conditions -  °F | °C
As of 9:35 PM on Friday 24 Oct 2014 (Local Time) from KEGE Reporting Station
Clear Clear  
Wind Chill: 44°   Ceiling: Unl
Heat Index: 46°   Visibility: 10mi
Dew Point: 30°   Wind: 6mph
Humidity: 53%   Direction: 120°ESE
Pressure: 30.38"   Gusts: NA
Location:  39.7°N, 106.68°W
Report Text: KEGE 250335Z AUTO 12005KT 10SM CLR 08/M01 A3038 RMK AO1
Loading
Personal Weather Stations






























Interactive Weather Map
Tropical Storm Tracking
New forecast layout! Learn more

10-Day Weather Forecast

Advertisements
Track Severe Weather on mobile